Pagina principale
METAR-TAF:

METAR-TAF

Aeroporti :

Aeroporto di Foggia

Foggia, Italia

latitudine: 41-25-58N, longitudine: 015-32-06E, altezza: 81 m

Osservazione

Il bollettino è stato emesso 28 minuti fa, alle 15:50 UTC
Vento 13 kt da est/sud-est
Temperature 16°C
Umidità 72%
Pressione 1008 hPa
Visibilità: 8000 m
Nuvoloso ad un'altezza di 1500 ft
pioggia debole

METAR: LIBF 221550Z 11013KT 8000 -RA BKN015 16/11 Q1008

Ora: 18:18 (16:18 UTC)


TAF: mancante

Osservazioni e previsioni meteorologiche di più di 4000 aeroporti (messaggi METAR e TAF).

Le stazioni disponibili sono rappresentate dai dischi gialli e rossi sulla carta.

Puntare il mouse per vedere il nome della stazione.

Clicca sopra per visualizzare le osservazioni e previsioni meteorologiche.

Per cambiare la mappa : fare clic sui pulsanti verdi con una croce nera per ingrandire, il pulsante verde con un trattino per diminuire, o sulla freccia verde per le mappe adiacenti.


METAR-TAF: